Time;durP1;ratioP1;P1;durP2;ratioP2;P2;SDS_P1;SDS_P2;PMS_P1;PMS_P2;Temp;Humidity;BMP_temperature;BMP_pressure;BME280_temperature;BME280_humidity;BME280_pressure;Samples;Min_cycle;Max_cycle;Signal;HPM_P1;HPM_P2
2023/01/20 00:02:06;;;;;;;98.40;42.40;;;;;;;-2.41;100.00;100118.11;5028906;55;1143071;-69
2023/01/20 00:07:12;;;;;;;135.75;50.25;;;;;;;-2.29;100.00;100110.42;4997752;57;1143158;-75
2023/01/20 00:12:18;;;;;;;189.13;69.90;;;;;;;-2.20;100.00;100110.12;5096468;56;1145244;-76
2023/01/20 00:17:24;;;;;;;145.23;58.47;;;;;;;-2.20;100.00;100114.86;4963737;57;1145276;-72
2023/01/20 00:22:30;;;;;;;129.78;50.28;;;;;;;-2.20;100.00;100114.86;4931771;57;1145042;-70
2023/01/20 00:27:36;;;;;;;130.43;50.30;;;;;;;-2.17;100.00;100117.80;5009577;57;1145102;-73
2023/01/20 00:32:44;;;;;;;124.93;46.20;;;;;;;-2.11;100.00;100127.95;5024669;57;1145186;-65
2023/01/20 00:37:49;;;;;;;134.80;47.90;;;;;;;-2.17;100.00;100132.05;5086369;55;1145156;-71
2023/01/20 00:42:55;;;;;;;146.90;52.53;;;;;;;-2.18;100.00;100142.01;5005383;57;1145259;-78
2023/01/20 00:48:00;;;;;;;143.13;52.80;;;;;;;-2.16;100.00;100129.86;5032588;57;1145110;-71
2023/01/20 00:53:08;;;;;;;112.92;45.82;;;;;;;-2.13;100.00;100139.66;5030486;57;1144982;-73
2023/01/20 00:58:13;;;;;;;150.32;51.25;;;;;;;-2.16;100.00;100148.84;5013018;57;1145108;-73
2023/01/20 01:03:19;;;;;;;134.63;48.63;;;;;;;-2.18;100.00;100158.40;5096941;56;1145316;-70
2023/01/20 01:08:25;;;;;;;153.12;51.45;;;;;;;-2.27;100.00;100162.55;5034667;57;1145193;-80
2023/01/20 01:13:32;;;;;;;152.20;47.47;;;;;;;-2.29;100.00;100171.30;5122585;55;1145282;-71
2023/01/20 01:18:38;;;;;;;111.90;42.03;;;;;;;-2.29;100.00;100160.93;5116499;56;1145204;-70
2023/01/20 01:23:45;;;;;;;88.47;38.00;;;;;;;-2.25;100.00;100172.87;5056404;56;1145187;-72
2023/01/20 01:28:51;;;;;;;101.63;39.60;;;;;;;-2.29;100.00;100175.17;5010038;56;1143149;-78
2023/01/20 01:33:56;;;;;;;126.37;46.87;;;;;;;-2.37;100.00;100174.09;5089293;56;1145267;-66
2023/01/20 01:39:02;;;;;;;168.07;54.87;;;;;;;-2.50;100.00;100179.25;4978089;57;1145088;-71
2023/01/20 01:44:12;;;;;;;159.87;49.93;;;;;;;-2.55;100.00;100181.97;5002230;56;1145035;-75
2023/01/20 01:49:25;;;;;;;137.68;46.83;;;;;;;-2.58;100.00;100190.27;5080199;56;1145195;-69
2023/01/20 01:54:41;;;;;;;123.57;43.10;;;;;;;-2.53;100.00;100196.16;5010836;57;1145019;-70
2023/01/20 01:59:47;;;;;;;95.80;40.13;;;;;;;-2.55;100.00;100198.79;5052588;56;1144949;-72
2023/01/20 02:04:53;;;;;;;135.67;51.63;;;;;;;-2.57;100.00;100199.72;5011030;57;1143128;-73
2023/01/20 02:09:59;;;;;;;115.83;42.23;;;;;;;-2.74;100.00;100211.00;5010696;57;1145087;-78
2023/01/20 02:15:06;;;;;;;131.87;42.73;;;;;;;-2.78;100.00;100211.56;5030799;56;1145280;-76
2023/01/20 02:20:37;;;;;;;135.57;44.33;;;;;;;-2.74;100.00;100214.44;4994655;57;1145110;-70
2023/01/20 02:26:08;;;;;;;131.60;41.37;;;;;;;-2.70;100.00;100219.94;4951063;57;1145104;-76
2023/01/20 02:31:55;;;;;;;104.37;38.87;;;;;;;-2.76;100.00;100225.31;4929341;58;1145129;-70
2023/01/20 02:37:26;;;;;;;79.80;31.10;;;;;;;-2.81;100.00;100236.22;4930377;57;1145167;-78
2023/01/20 02:42:45;;;;;;;106.63;33.90;;;;;;;-2.88;100.00;100250.20;5002302;57;1143053;-75
2023/01/20 02:48:04;;;;;;;91.92;32.53;;;;;;;-2.90;100.00;100251.53;5028211;57;1145386;-68
2023/01/20 02:53:12;;;;;;;101.97;35.90;;;;;;;-2.86;100.00;100245.84;5095886;56;1143014;-65
2023/01/20 02:58:26;;;;;;;96.73;34.80;;;;;;;-2.82;100.00;100264.73;4969271;57;1145286;-82
2023/01/20 03:03:36;;;;;;;89.93;34.70;;;;;;;-2.81;100.00;100274.19;4959818;57;1143402;-73
2023/01/20 03:08:44;;;;;;;171.27;55.50;;;;;;;-2.82;100.00;100262.98;4979466;57;1143135;-73
2023/01/20 03:13:57;;;;;;;144.17;50.63;;;;;;;-2.78;100.00;100260.73;4955798;57;1145398;-76
2023/01/20 03:19:03;;;;;;;154.95;53.02;;;;;;;-2.77;100.00;100265.02;4882215;57;1145498;-75
2023/01/20 03:24:09;;;;;;;81.35;34.45;;;;;;;-2.70;100.00;100263.94;4895418;58;1145168;-70
2023/01/20 03:29:17;;;;;;;89.47;35.93;;;;;;;-2.57;100.00;100270.47;4876434;58;1143288;-65
2023/01/20 03:34:26;;;;;;;91.87;34.77;;;;;;;-2.53;100.00;100267.36;4799908;59;1143222;-73
2023/01/20 03:39:38;;;;;;;94.53;35.80;;;;;;;-2.59;100.00;100267.08;4916047;58;1143407;-68
2023/01/20 03:45:17;;;;;;;106.43;39.43;;;;;;;-2.60;100.00;100266.70;5056261;56;1184588;-70
2023/01/20 03:51:06;;;;;;;77.50;31.73;;;;;;;-2.54;100.00;100266.51;5100328;56;1145415;-68
2023/01/20 03:56:20;;;;;;;85.97;33.53;;;;;;;-2.61;100.00;100289.59;5100344;56;1143251;-73
2023/01/20 04:01:36;;;;;;;85.00;33.13;;;;;;;-2.68;100.00;100289.34;5099398;56;1143394;-73
2023/01/20 04:06:44;;;;;;;86.53;33.63;;;;;;;-2.68;100.00;100304.87;5119051;55;1142972;-67
2023/01/20 04:11:50;;;;;;;99.63;37.67;;;;;;;-2.77;100.00;100312.05;5096166;56;1143127;-73
2023/01/20 04:16:59;;;;;;;124.60;45.80;;;;;;;-2.80;100.00;100316.00;5055811;56;1143150;-74
2023/01/20 04:22:26;;;;;;;91.17;38.43;;;;;;;-2.86;100.00;100321.73;5112010;56;1145162;-72
2023/01/20 04:27:32;;;;;;;93.27;37.83;;;;;;;-2.86;100.00;100326.06;5058113;55;1143083;-71
2023/01/20 04:32:38;;;;;;;103.57;44.17;;;;;;;-2.84;100.00;100321.70;5016395;56;1143132;-77
2023/01/20 04:37:44;;;;;;;87.13;32.80;;;;;;;-2.76;100.00;100327.98;5055389;55;1145405;-69
2023/01/20 04:42:50;;;;;;;96.83;39.23;;;;;;;-2.87;100.00;100343.32;5088866;55;1142938;-76
2023/01/20 04:47:56;;;;;;;105.83;37.50;;;;;;;-3.09;100.00;100346.50;5037736;56;1142896;-73
2023/01/20 04:53:02;;;;;;;92.43;40.00;;;;;;;-3.08;100.00;100354.67;5104504;55;1145082;-75
2023/01/20 04:58:11;;;;;;;97.25;38.90;;;;;;;-3.00;100.00;100352.73;5157695;55;1143067;-80
2023/01/20 05:03:19;;;;;;;95.10;36.93;;;;;;;-2.88;100.00;100349.38;5109701;55;1142955;-80
2023/01/20 05:08:24;;;;;;;99.03;38.55;;;;;;;-2.74;100.00;100358.08;5074137;55;1143372;-77
2023/01/20 05:13:31;;;;;;;140.25;47.10;;;;;;;-2.65;100.00;100367.37;5147136;55;1143145;-65
2023/01/20 05:18:37;;;;;;;67.12;31.65;;;;;;;-2.55;100.00;100364.48;5060293;55;1145062;-69
2023/01/20 05:23:43;;;;;;;80.57;35.17;;;;;;;-2.52;100.00;100379.09;5127900;55;1143021;-68
2023/01/20 05:28:49;;;;;;;75.00;34.27;;;;;;;-2.52;100.00;100385.13;5148083;55;1143077;-66
2023/01/20 05:33:55;;;;;;;102.83;43.30;;;;;;;-2.49;100.00;100388.08;5119037;55;1143378;-68
2023/01/20 05:39:00;;;;;;;112.90;46.10;;;;;;;-2.44;100.00;100396.56;5123563;55;1145127;-65
2023/01/20 05:44:07;;;;;;;124.83;52.47;;;;;;;-2.43;100.00;100400.84;5149762;55;1145192;-69
2023/01/20 05:49:13;;;;;;;181.33;71.20;;;;;;;-2.36;100.00;100407.58;5101000;55;1145071;-69
2023/01/20 05:54:19;;;;;;;152.63;58.90;;;;;;;-2.30;100.00;100410.02;5099090;56;1145174;-71
2023/01/20 05:59:25;;;;;;;119.73;51.30;;;;;;;-2.27;100.00;100418.97;5119101;56;1145132;-72
2023/01/20 06:04:32;;;;;;;132.03;54.27;;;;;;;-2.22;100.00;100431.81;5097583;56;1145224;-69
2023/01/20 06:09:37;;;;;;;158.73;68.80;;;;;;;-2.23;100.00;100429.67;5085614;55;1145140;-68
2023/01/20 06:14:44;;;;;;;222.13;89.43;;;;;;;-2.15;100.00;100429.48;5013990;57;1145211;-66
2023/01/20 06:19:50;;;;;;;214.13;86.13;;;;;;;-2.05;100.00;100438.69;5031214;56;1145318;-70
2023/01/20 06:24:56;;;;;;;143.47;55.43;;;;;;;-1.99;100.00;100453.23;5101624;55;1145217;-70
2023/01/20 06:30:02;;;;;;;256.73;79.90;;;;;;;-2.06;100.00;100458.16;5148207;55;1145114;-70
2023/01/20 06:35:08;;;;;;;157.60;58.73;;;;;;;-2.10;100.00;100467.75;5103041;55;1145303;-71
2023/01/20 06:40:14;;;;;;;227.37;70.43;;;;;;;-2.08;100.00;100480.22;5041234;56;1145154;-67
2023/01/20 06:45:20;;;;;;;212.97;70.63;;;;;;;-2.04;100.00;100484.89;5085065;55;1145166;-72
2023/01/20 06:50:26;;;;;;;198.10;69.20;;;;;;;-2.05;100.00;100493.55;5079414;56;1261897;-70
2023/01/20 06:55:32;;;;;;;171.20;62.58;;;;;;;-1.98;100.00;100492.03;5065727;55;1145187;-70
2023/01/20 07:00:39;;;;;;;189.13;66.10;;;;;;;-1.95;100.00;100496.28;5092946;56;1145282;-70
2023/01/20 07:05:54;;;;;;;193.60;71.40;;;;;;;-1.90;100.00;100519.05;5080822;55;1145362;-69
2023/01/20 07:11:00;;;;;;;170.23;69.23;;;;;;;-1.88;100.00;100531.09;5093324;55;1145417;-72
2023/01/20 07:16:06;;;;;;;153.33;59.07;;;;;;;-1.83;100.00;100534.39;5049780;55;1145242;-73
2023/01/20 07:21:12;;;;;;;133.60;49.63;;;;;;;-1.71;100.00;100532.37;5088392;56;1145258;-67
2023/01/20 07:26:23;;;;;;;103.97;42.17;;;;;;;-1.68;100.00;100547.38;5031707;56;1145095;-70
2023/01/20 07:31:33;;;;;;;109.53;46.20;;;;;;;-1.78;100.00;100558.45;5004217;56;1145299;-72
2023/01/20 07:36:38;;;;;;;140.17;56.47;;;;;;;-1.74;100.00;100559.68;5044534;55;1145223;-72
2023/01/20 07:41:47;;;;;;;127.00;54.03;;;;;;;-1.72;100.00;100557.90;5041517;55;1145362;-72
2023/01/20 07:46:53;;;;;;;134.70;55.87;;;;;;;-1.72;100.00;100572.16;5072433;56;1145044;-73
2023/01/20 07:51:59;;;;;;;125.30;54.60;;;;;;;-1.64;100.00;100568.45;5047915;55;1145709;-71
2023/01/20 07:57:05;;;;;;;121.40;49.97;;;;;;;-1.62;100.00;100576.20;5018833;56;1145057;-70
2023/01/20 08:02:11;;;;;;;130.40;57.37;;;;;;;-1.55;100.00;100577.75;5049390;56;1145406;-68
2023/01/20 08:07:18;;;;;;;315.05;122.58;;;;;;;-1.58;100.00;100589.05;5065433;56;1145104;-66
2023/01/20 08:12:24;;;;;;;289.13;106.17;;;;;;;-1.56;100.00;100589.02;5113694;56;1147220;-73
2023/01/20 08:17:30;;;;;;;242.13;86.47;;;;;;;-1.53;100.00;100591.05;5046342;56;1147177;-68
2023/01/20 08:22:36;;;;;;;212.43;82.83;;;;;;;-1.47;100.00;100605.16;5050478;55;1145153;-71
2023/01/20 08:27:41;;;;;;;186.10;71.28;;;;;;;-1.47;100.00;100605.61;5095418;56;1145094;-72
2023/01/20 08:32:47;;;;;;;207.50;86.13;;;;;;;-1.39;100.00;100611.91;5083371;56;1145029;-71
2023/01/20 08:37:53;;;;;;;177.63;75.63;;;;;;;-1.30;100.00;100620.27;5079658;56;1144997;-66
2023/01/20 08:42:59;;;;;;;162.37;68.30;;;;;;;-1.29;100.00;100606.86;5113613;55;1145142;-72
2023/01/20 08:48:05;;;;;;;163.18;62.00;;;;;;;-1.27;100.00;100619.34;5070504;55;1145110;-74
2023/01/20 08:53:10;;;;;;;156.80;66.67;;;;;;;-1.29;100.00;100627.61;5046319;55;1145059;-70
2023/01/20 08:58:17;;;;;;;211.67;84.77;;;;;;;-1.29;100.00;100632.80;5041940;56;1145285;-72
2023/01/20 09:03:23;;;;;;;274.67;105.53;;;;;;;-1.21;100.00;100639.91;4983928;57;1145007;-70
2023/01/20 09:08:29;;;;;;;265.30;101.83;;;;;;;-1.15;100.00;100652.28;5079827;56;1147163;-72
2023/01/20 09:13:37;;;;;;;207.93;84.33;;;;;;;-1.08;100.00;100655.13;5077903;56;1147256;-73
2023/01/20 09:18:43;;;;;;;185.63;79.27;;;;;;;-1.03;100.00;100662.77;5148024;56;1145177;-71
2023/01/20 09:23:50;;;;;;;201.77;85.50;;;;;;;-0.98;100.00;100668.69;5056855;55;1145205;-70
2023/01/20 09:28:56;;;;;;;195.17;83.90;;;;;;;-0.90;100.00;100685.33;5074192;56;1145136;-70
2023/01/20 09:34:02;;;;;;;149.37;64.70;;;;;;;-0.91;100.00;100692.27;5117747;56;1145121;-71
2023/01/20 09:44:59;;;;;;;96.80;43.20;;;;;;;-0.85;100.00;100713.33;5067880;56;1145102;-72
2023/01/20 09:55:59;;;;;;;95.90;45.90;;;;;;;-0.71;100.00;100725.03;5102363;55;976197;-73
2023/01/20 10:01:29;;;;;;;83.57;36.43;;;;;;;-0.68;100.00;100728.00;5056307;56;1140990;-70
2023/01/20 10:06:52;;;;;;;106.43;47.00;;;;;;;-0.63;100.00;100713.59;5171085;55;1143160;-70
2023/01/20 10:12:27;;;;;;;80.27;37.07;;;;;;;-0.60;100.00;100715.63;5062183;56;1145213;-75
2023/01/20 10:17:37;;;;;;;440.33;226.03;;;;;;;-0.56;100.00;100709.91;5018463;56;1143006;-68
2023/01/20 10:22:57;;;;;;;88.30;38.45;;;;;;;-0.53;100.00;100705.92;5081141;55;1147378;-73
2023/01/20 10:28:07;;;;;;;91.07;45.67;;;;;;;-0.51;100.00;100706.73;5067156;56;1143065;-68
2023/01/20 10:33:20;;;;;;;87.77;41.80;;;;;;;-0.46;100.00;100712.18;5014769;56;1143322;-67
2023/01/20 10:38:43;;;;;;;81.08;38.67;;;;;;;-0.42;100.00;100702.11;5019975;56;1143240;-69
2023/01/20 10:43:49;;;;;;;73.28;33.67;;;;;;;-0.34;100.00;100699.75;5124956;56;1143114;-69
2023/01/20 10:49:11;;;;;;;88.07;41.60;;;;;;;-0.30;100.00;100678.80;5101302;56;1143200;-72
2023/01/20 10:54:34;;;;;;;87.70;42.83;;;;;;;-0.22;100.00;100666.44;5070083;56;1143061;-69
2023/01/20 10:59:53;;;;;;;110.93;38.50;;;;;;;-0.10;100.00;100685.54;5023330;55;1143170;-72
2023/01/20 11:05:17;;;;;;;110.20;44.13;;;;;;;-0.14;100.00;100678.73;5112890;56;1145049;-69
2023/01/20 11:10:29;;;;;;;87.00;41.03;;;;;;;-0.14;100.00;100678.73;5018949;56;1145086;-71
2023/01/20 11:15:40;;;;;;;98.50;44.20;;;;;;;-0.09;100.00;100695.48;5049633;55;1143173;-73
2023/01/20 11:21:04;;;;;;;83.97;43.65;;;;;;;-0.06;100.00;100704.50;5034147;57;1143263;-68
2023/01/20 11:26:32;;;;;;;95.67;44.73;;;;;;;-0.02;100.00;100710.86;5050595;56;1143041;-73
2023/01/20 11:31:51;;;;;;;98.37;49.67;;;;;;;0.08;100.00;100721.82;4956078;57;1143215;-70
2023/01/20 11:37:19;;;;;;;240.97;112.80;;;;;;;0.11;100.00;100727.38;4920915;57;1140921;-83
2023/01/20 11:42:46;;;;;;;115.70;52.93;;;;;;;0.12;100.00;100726.03;4937764;57;1145089;-83
2023/01/20 11:48:17;;;;;;;86.55;44.25;;;;;;;0.08;100.00;100730.92;5068993;56;1143118;-77
2023/01/20 11:53:30;;;;;;;88.93;44.17;;;;;;;0.03;100.00;100728.91;4932989;57;1140899;-77
2023/01/20 11:58:54;;;;;;;86.67;42.90;;;;;;;0.04;100.00;100753.16;5011657;57;1141088;-65
2023/01/20 12:04:32;;;;;;;92.85;43.05;;;;;;;0.05;100.00;100758.31;5017152;56;1141084;-73
2023/01/20 12:09:43;;;;;;;90.03;41.73;;;;;;;0.02;100.00;100774.00;4990857;56;1146337;-71
2023/01/20 12:15:08;;;;;;;89.58;46.35;;;;;;;0.07;100.00;100776.47;5082097;56;1141113;-73
2023/01/20 12:20:30;;;;;;;100.58;49.18;;;;;;;0.07;100.00;100778.63;4956878;58;1141113;-72
2023/01/20 12:25:46;;;;;;;86.70;42.60;;;;;;;0.09;100.00;100791.58;4917741;58;1143060;-72
2023/01/20 12:30:58;;;;;;;92.88;47.95;;;;;;;0.10;100.00;100797.19;4785866;59;1140909;-72
2023/01/20 12:36:27;;;;;;;107.40;49.10;;;;;;;0.06;100.00;100796.42;4842570;59;1141020;-71
2023/01/20 12:41:56;;;;;;;122.28;55.63;;;;;;;0.04;100.00;100793.01;4790373;59;1143120;-70
2023/01/20 12:47:23;;;;;;;119.77;59.70;;;;;;;0.04;100.00;100806.45;4803779;60;1143148;-71
2023/01/20 12:53:03;;;;;;;106.40;59.83;;;;;;;0.04;100.00;100809.91;4836504;59;1143198;-71
2023/01/20 12:58:25;;;;;;;100.07;50.53;;;;;;;0.08;100.00;100811.98;4975727;57;1143177;-71
2023/01/20 13:03:47;;;;;;;110.37;48.17;;;;;;;0.09;100.00;100809.78;4998429;57;1143106;-73
2023/01/20 13:09:38;;;;;;;93.80;46.40;;;;;;;0.15;100.00;100827.81;5011123;56;1143160;-69
2023/01/20 13:14:51;;;;;;;105.77;50.53;;;;;;;0.17;100.00;100841.15;5006868;57;1141027;-74
2023/01/20 13:20:00;;;;;;;122.75;56.98;;;;;;;0.12;100.00;100839.60;4979094;56;1143002;-78
2023/01/20 13:25:08;;;;;;;154.40;69.77;;;;;;;0.10;100.00;100836.19;4961889;57;1143129;-83
2023/01/20 13:30:46;;;;;;;232.50;108.10;;;;;;;0.07;100.00;100847.53;4925042;57;1143216;-74
2023/01/20 13:35:51;;;;;;;163.18;80.32;;;;;;;0.05;100.00;100845.42;4983131;57;1145275;-72
2023/01/20 13:41:04;;;;;;;137.20;65.67;;;;;;;0.09;100.00;100853.98;4984431;57;1143028;-79
2023/01/20 13:46:17;;;;;;;116.97;52.00;;;;;;;0.08;100.00;100863.54;5033073;56;1143068;-78
2023/01/20 13:51:30;;;;;;;119.15;55.65;;;;;;;0.09;100.00;100861.79;5008518;57;1143025;-83
2023/01/20 13:56:38;;;;;;;107.15;50.75;;;;;;;0.08;100.00;100866.14;5096281;56;1143161;-78
2023/01/20 14:01:43;;;;;;;120.30;55.37;;;;;;;0.10;100.00;100867.40;5118343;56;1143157;-80
2023/01/20 14:06:52;;;;;;;115.47;54.15;;;;;;;0.11;100.00;100867.36;4935512;57;1143170;-75
2023/01/20 14:11:59;;;;;;;114.53;54.53;;;;;;;0.03;100.00;100878.41;4943972;57;1143105;-83
2023/01/20 14:17:08;;;;;;;122.10;54.70;;;;;;;0.04;100.00;100872.77;4994158;57;1143122;-76
2023/01/20 14:22:27;;;;;;;120.97;55.63;;;;;;;0.05;100.00;100878.37;4971241;57;1142966;-82
2023/01/20 14:27:40;;;;;;;133.57;59.03;;;;;;;0.05;100.00;100885.72;4971368;57;1143133;-76
2023/01/20 14:32:45;;;;;;;118.62;48.74;;;;;;;0.10;100.00;100893.41;4973055;57;1143011;-78
2023/01/20 14:37:52;;;;;;;112.63;48.77;;;;;;;0.06;100.00;100900.43;5032430;56;1143193;-72
2023/01/20 14:43:01;;;;;;;90.03;41.65;;;;;;;-0.04;100.00;100914.59;4998803;56;1143096;-73
2023/01/20 14:48:09;;;;;;;90.42;39.42;;;;;;;-0.09;100.00;100915.16;5011396;56;1143249;-74
2023/01/20 18:45:58;;;;;;;100.20;44.63;;;;;;;-0.52;100.00;101221.58;5236693;54;46673;-74
2023/01/20 18:51:04;;;;;;;63.43;28.53;;;;;;;-0.55;100.00;101241.56;5086586;56;1141033;-70
2023/01/20 18:56:14;;;;;;;46.70;23.30;;;;;;;-0.58;100.00;101237.28;5051736;56;1143103;-80
2023/01/20 19:01:26;;;;;;;78.73;33.73;;;;;;;-0.60;100.00;101246.84;5096950;55;1143026;-72
2023/01/20 19:06:36;;;;;;;64.45;35.10;;;;;;;-0.67;100.00;101246.56;5113455;56;1143107;-69
2023/01/20 19:11:43;;;;;;;65.93;31.47;;;;;;;-0.69;100.00;101250.08;5056348;57;1143154;-78
2023/01/20 19:16:51;;;;;;;62.20;30.77;;;;;;;-0.67;100.00;101249.61;5096957;55;1143051;-77
2023/01/20 19:21:57;;;;;;;48.23;23.03;;;;;;;-0.64;100.00;101248.25;5127462;55;1143014;-73
2023/01/20 19:27:04;;;;;;;36.68;20.02;;;;;;;-0.66;100.00;101252.17;5127034;56;1143450;-79
2023/01/20 19:32:11;;;;;;;35.30;18.97;;;;;;;-0.72;100.00;101250.55;5063306;56;1143167;-75
2023/01/20 19:37:18;;;;;;;58.45;28.25;;;;;;;-0.75;100.00;101257.09;5064381;56;1142981;-80
2023/01/20 19:42:25;;;;;;;78.45;32.17;;;;;;;-0.74;100.00;101264.44;5079278;56;1142956;-72
2023/01/20 19:47:34;;;;;;;64.67;30.03;;;;;;;-0.77;100.00;101259.33;5050423;56;1143017;-70
2023/01/20 19:52:40;;;;;;;361.83;182.53;;;;;;;-0.73;100.00;101259.22;5109687;56;1142895;-78
2023/01/20 19:57:49;;;;;;;116.87;47.07;;;;;;;-0.71;100.00;101260.05;5115048;56;1147206;-73
2023/01/20 20:02:55;;;;;;;72.40;34.63;;;;;;;-0.73;100.00;101259.22;5150072;56;1145155;-77
2023/01/20 20:08:01;;;;;;;69.82;27.07;;;;;;;-0.71;100.00;101261.34;5130977;56;1143051;-77
2023/01/20 20:13:08;;;;;;;51.30;27.47;;;;;;;-0.73;100.00;101273.95;5130826;56;1143086;-73
2023/01/20 20:18:15;;;;;;;77.20;32.97;;;;;;;-0.75;100.00;101280.47;5150628;56;1143081;-71
2023/01/20 20:23:22;;;;;;;61.63;28.30;;;;;;;-0.78;100.00;101278.39;5121357;56;1143083;-74
2023/01/20 20:28:29;;;;;;;69.60;34.47;;;;;;;-0.81;100.00;101280.59;5130650;56;1143196;-68
2023/01/20 20:33:38;;;;;;;74.03;36.58;;;;;;;-0.81;100.00;101276.70;5150693;56;1143377;-71
2023/01/20 20:38:49;;;;;;;73.63;34.00;;;;;;;-0.73;100.00;101290.83;5130606;56;1143081;-68
2023/01/20 20:43:55;;;;;;;63.75;32.73;;;;;;;-0.73;100.00;101291.69;5130969;56;1143123;-77
2023/01/20 20:49:02;;;;;;;62.96;29.92;;;;;;;-0.69;100.00;101298.98;5224525;55;1143112;-78
2023/01/20 20:54:11;;;;;;;93.10;49.00;;;;;;;-0.67;100.00;101306.75;5186534;55;1142960;-90
2023/01/20 20:59:21;;;;;;;86.00;37.57;;;;;;;-0.63;100.00;101317.51;5170253;55;1142930;-69
2023/01/20 21:04:26;;;;;;;50.70;25.23;;;;;;;-0.58;100.00;101329.95;5179640;55;1143180;-70
2023/01/20 21:09:33;;;;;;;45.30;23.50;;;;;;;-0.55;100.00;101336.39;5192272;55;1143092;-71
2023/01/20 21:14:40;;;;;;;46.03;22.73;;;;;;;-0.53;100.00;101345.02;5138902;55;1142980;-86
2023/01/20 21:19:48;;;;;;;40.93;22.40;;;;;;;-0.58;100.00;101339.89;5134650;55;1143257;-84
2023/01/20 21:24:54;;;;;;;45.95;21.68;;;;;;;-0.65;100.00;101351.30;5174611;55;1143094;-67
2023/01/20 21:30:01;;;;;;;53.33;26.00;;;;;;;-0.68;100.00;101353.09;5160672;55;1143101;-75
2023/01/20 21:35:09;;;;;;;58.50;26.93;;;;;;;-0.68;100.00;101340.96;5220192;55;1142959;-75
2023/01/20 21:40:17;;;;;;;54.83;22.73;;;;;;;-0.70;100.00;101337.53;5222075;55;1143093;-75
2023/01/20 21:45:25;;;;;;;58.70;28.27;;;;;;;-0.76;100.00;101335.89;5237030;55;1142895;-81
2023/01/20 21:55:56;;;;;;;62.75;29.15;;;;;;;-0.75;100.00;101339.34;5132517;55;1142994;-86
2023/01/20 22:01:02;;;;;;;57.00;27.63;;;;;;;-0.78;100.00;101335.09;5152481;55;1143175;-74
2023/01/20 22:06:09;;;;;;;54.10;23.80;;;;;;;-0.77;100.00;101335.95;5131237;56;1143022;-79
2023/01/20 22:11:15;;;;;;;63.48;26.30;;;;;;;-0.72;100.00;101335.40;5131007;56;1143142;-74
2023/01/20 22:16:21;;;;;;;79.83;38.63;;;;;;;-0.72;100.00;101336.25;5131097;56;1143086;-72
2023/01/20 22:21:28;;;;;;;60.50;27.33;;;;;;;-0.74;100.00;101330.67;5151462;55;1142995;-72
2023/01/20 22:26:34;;;;;;;62.13;26.83;;;;;;;-0.75;100.00;101342.80;5131137;55;1143130;-71
2023/01/20 22:31:40;;;;;;;52.63;22.20;;;;;;;-0.75;100.00;101344.09;5131394;55;1143103;-80
2023/01/20 22:36:46;;;;;;;46.63;22.60;;;;;;;-0.74;100.00;101341.06;5151784;55;1142968;-88
2023/01/20 22:41:51;;;;;;;49.23;22.47;;;;;;;-0.73;100.00;101349.27;5111600;56;1142861;-78
2023/01/20 22:46:59;;;;;;;53.87;23.40;;;;;;;-0.71;100.00;101352.70;5129031;55;1142955;-75
2023/01/20 22:52:05;;;;;;;46.37;21.05;;;;;;;-0.71;100.00;101359.19;5204366;55;1143260;-88
2023/01/20 22:57:12;;;;;;;43.57;19.30;;;;;;;-0.70;100.00;101353.11;5132840;55;1143150;-79
2023/01/20 23:02:18;;;;;;;46.37;22.33;;;;;;;-0.73;100.00;101341.48;5167236;55;1143160;-73
2023/01/20 23:07:24;;;;;;;49.20;21.27;;;;;;;-0.73;100.00;101350.12;5181930;55;1143111;-80
2023/01/20 23:12:30;;;;;;;38.63;17.90;;;;;;;-0.74;100.00;101352.75;5202871;55;1143100;-77
2023/01/20 23:17:36;;;;;;;47.98;21.37;;;;;;;-0.79;100.00;101349.40;5182634;55;1142981;-70
2023/01/20 23:22:43;;;;;;;64.37;27.27;;;;;;;-0.80;100.00;101345.08;5100676;55;1142966;-75
2023/01/20 23:27:49;;;;;;;65.83;25.10;;;;;;;-0.85;100.00;101330.02;5200531;55;1143209;-81
2023/01/20 23:32:56;;;;;;;58.92;22.85;;;;;;;-0.89;100.00;101335.70;5183419;55;1143362;-75
2023/01/20 23:38:01;;;;;;;58.63;23.27;;;;;;;-0.85;100.00;101338.66;5182737;55;1143006;-70
2023/01/20 23:43:07;;;;;;;57.43;25.95;;;;;;;-0.87;100.00;101318.80;5195830;55;1143391;-75
2023/01/20 23:48:13;;;;;;;56.60;23.43;;;;;;;-0.91;100.00;101322.32;5096721;56;1142953;-80
2023/01/20 23:53:19;;;;;;;49.77;21.17;;;;;;;-0.92;100.00;101321.50;5088685;55;1143000;-80
2023/01/20 23:58:26;;;;;;;51.53;22.27;;;;;;;-0.95;100.00;101327.17;5082984;55;1143172;-79
